Kalgoorlie, Australia
Current Conditions -  °F | °C
As of 5:30 PM on Saturday 20 Dec 2014 (Local Time) from YPKG Reporting Station
Broken Clouds Broken Clouds  
Wind Chill: 86°   Ceiling: 11500
Heat Index: 86°   Visibility: 6mi
Dew Point: 55°   Wind: 22mph
Humidity: 35%   Direction: 250°WSW
Pressure: 29.59"   Gusts: NA
Location:  30.75°S, 121.47°E
Report Text: YPKG 200930Z AUTO 25019KT 9999 // BKN115 30/13 Q1002
Loading
Personal Weather Stations






























Interactive Weather Map New forecast layout! Learn more

10-Day Weather Forecast

Advertisements
Track Severe Weather on mobile